IFA weather

Iowa Falls Municipal Airport
Iowa Falls, Iowa, United States

Public forecast

Using degrees Fahrenheit for public forecast. Weather courtesy of forecast.io.

METAR (pilot weather report)

Retrieved 2019/09/22 07:35 UTC (0 seconds ago):

KIFA 220735Z AUTO 25005KT 10SM RA 22/19 A2990 RMK AO2 P0007 T02150190

TAF (pilot weather forecast)

Closest forecast is Waterloo Regional Airport, 38.8 nm (71.9 km) E. Retrieved 2019/09/22 06:22 UTC (1 hour ago):

TAF KALO 220520Z 2206/2306 21008KT P6SM VCSH OVC025 FM221100 28005KT 5SM -SHRA OVC015 FM222100 34009KT P6SM OVC015 FM230100 32005KT P6SM SCT050